Time;durP1;ratioP1;P1;durP2;ratioP2;P2;SDS_P1;SDS_P2;PMS_P1;PMS_P2;Temp;Humidity;BMP_temperature;BMP_pressure;BME280_temperature;BME280_humidity;BME280_pressure;Samples;Min_cycle;Max_cycle;Signal;HPM_P1;HPM_P2
2023/04/27 00:00:26;;;;;;;14.30;13.10;;;2.90;99.90;;;;;;5065251;28;20276;-48
2023/04/27 00:02:52;;;;;;;13.57;12.60;;;2.80;99.90;;;;;;5070200;28;20185;-48
2023/04/27 00:05:18;;;;;;;12.20;11.30;;;2.80;99.90;;;;;;5068546;28;20443;-49
2023/04/27 00:07:43;;;;;;;14.52;13.25;;;2.70;99.90;;;;;;5068149;28;20232;-46
2023/04/27 00:10:09;;;;;;;13.13;12.23;;;2.70;99.90;;;;;;5068534;28;20182;-47
2023/04/27 00:12:35;;;;;;;12.55;11.63;;;2.70;99.90;;;;;;5068341;28;20655;-49
2023/04/27 00:15:01;;;;;;;13.83;12.57;;;2.70;99.90;;;;;;5068927;28;20238;-47
2023/04/27 00:17:26;;;;;;;14.00;12.77;;;2.70;99.90;;;;;;5073450;28;20169;-47
2023/04/27 00:19:52;;;;;;;13.43;12.43;;;2.70;99.90;;;;;;5069143;28;20177;-46
2023/04/27 00:22:17;;;;;;;13.80;12.70;;;2.60;99.90;;;;;;5066567;28;20274;-48
2023/04/27 00:24:43;;;;;;;13.57;12.50;;;2.60;99.90;;;;;;5064136;28;20223;-48
2023/04/27 00:27:09;;;;;;;13.20;12.30;;;2.60;99.90;;;;;;5069837;28;20640;-47
2023/04/27 00:29:34;;;;;;;14.17;13.00;;;2.50;99.90;;;;;;5069730;28;20205;-50
2023/04/27 00:32:00;;;;;;;14.10;12.80;;;2.50;99.90;;;;;;5062813;28;20541;-46
2023/04/27 00:34:25;;;;;;;13.90;12.70;;;2.50;99.90;;;;;;5068116;28;20679;-47
2023/04/27 00:36:51;;;;;;;14.57;13.37;;;2.50;99.90;;;;;;5071968;28;20181;-48
2023/04/27 00:39:17;;;;;;;13.20;12.30;;;2.40;99.90;;;;;;5055762;28;20185;-47
2023/04/27 00:41:42;;;;;;;13.53;12.53;;;2.40;99.90;;;;;;5061981;28;20292;-47
2023/04/27 00:44:08;;;;;;;14.07;12.97;;;2.40;99.90;;;;;;5070998;28;20636;-44
2023/04/27 00:46:35;;;;;;;13.87;12.77;;;2.40;99.90;;;;;;5072660;28;20243;-48
2023/04/27 00:49:01;;;;;;;13.68;12.68;;;2.40;99.90;;;;;;5072028;28;20187;-45
2023/04/27 00:51:29;;;;;;;13.77;12.63;;;2.30;99.90;;;;;;5065473;28;20177;-51
2023/04/27 00:53:59;;;;;;;14.15;13.15;;;2.30;99.90;;;;;;5071201;28;20971;-45
2023/04/27 00:56:25;;;;;;;13.80;12.80;;;2.30;99.90;;;;;;5071289;28;20165;-50
2023/04/27 00:58:50;;;;;;;14.43;13.30;;;2.30;99.90;;;;;;5072402;28;20197;-45
2023/04/27 01:01:16;;;;;;;13.77;12.67;;;2.20;99.90;;;;;;5063091;28;20181;-45
2023/04/27 01:03:42;;;;;;;13.40;12.10;;;2.20;99.90;;;;;;5071092;28;20193;-47
2023/04/27 01:06:08;;;;;;;14.03;13.03;;;2.20;99.90;;;;;;5070325;28;20437;-47
2023/04/27 01:08:33;;;;;;;14.77;13.70;;;2.10;99.90;;;;;;5071928;28;20439;-49
2023/04/27 01:10:59;;;;;;;15.20;13.83;;;2.10;99.90;;;;;;5066297;28;20246;-48
2023/04/27 01:13:25;;;;;;;13.70;12.70;;;2.10;99.90;;;;;;5071310;28;20236;-48
2023/04/27 01:15:50;;;;;;;13.80;12.80;;;2.10;99.90;;;;;;5070942;28;20178;-46
2023/04/27 01:18:16;;;;;;;14.40;13.20;;;2.00;99.90;;;;;;5072059;28;20260;-48
2023/04/27 01:20:43;;;;;;;13.20;12.30;;;2.00;99.90;;;;;;5071755;28;20211;-46
2023/04/27 01:23:15;;;;;;;14.40;13.30;;;2.00;99.90;;;;;;5066342;28;20863;-48
2023/04/27 01:25:41;;;;;;;14.05;13.00;;;1.90;99.90;;;;;;5071412;28;20188;-50
2023/04/27 01:28:07;;;;;;;13.20;12.17;;;1.90;99.90;;;;;;5065637;28;20204;-49
2023/04/27 01:30:32;;;;;;;14.03;12.93;;;1.90;99.90;;;;;;5071056;28;20185;-51
2023/04/27 01:32:58;;;;;;;13.97;13.07;;;1.80;99.90;;;;;;5084503;28;20219;-46
2023/04/27 01:35:24;;;;;;;14.40;13.00;;;1.80;99.90;;;;;;5070494;28;20173;-48
2023/04/27 01:37:50;;;;;;;14.50;13.30;;;1.80;99.90;;;;;;5071903;28;20528;-47
2023/04/27 01:40:16;;;;;;;13.52;12.43;;;1.70;99.90;;;;;;5071797;28;20181;-50
2023/04/27 01:42:41;;;;;;;12.47;11.60;;;1.70;99.90;;;;;;5064667;28;20181;-47
2023/04/27 01:45:08;;;;;;;13.30;12.20;;;1.70;99.90;;;;;;5070889;28;20193;-51
2023/04/27 01:47:33;;;;;;;13.80;12.65;;;1.70;99.90;;;;;;5071491;28;20216;-53
2023/04/27 01:49:59;;;;;;;11.83;10.90;;;1.70;99.90;;;;;;5070917;28;20224;-49
2023/04/27 01:52:25;;;;;;;13.70;12.60;;;1.70;99.90;;;;;;5068292;28;21103;-49
2023/04/27 01:54:50;;;;;;;12.67;11.77;;;1.60;99.90;;;;;;5070716;28;20173;-46
2023/04/27 01:57:16;;;;;;;13.40;12.37;;;1.60;99.90;;;;;;5071350;28;20666;-48
2023/04/27 01:59:42;;;;;;;13.50;12.47;;;1.60;99.90;;;;;;5062495;28;20288;-50
2023/04/27 02:02:07;;;;;;;12.80;11.70;;;1.60;99.90;;;;;;5069767;28;20190;-47
2023/04/27 02:04:35;;;;;;;12.83;11.83;;;1.60;99.90;;;;;;5070647;28;20185;-49
2023/04/27 02:07:00;;;;;;;13.32;11.95;;;1.60;99.90;;;;;;5071517;28;20181;-47
2023/04/27 02:09:26;;;;;;;13.57;12.23;;;1.50;99.90;;;;;;5080423;28;20574;-49
2023/04/27 02:11:52;;;;;;;13.00;11.90;;;1.50;99.90;;;;;;5070275;28;20189;-45
2023/04/27 02:14:17;;;;;;;13.70;12.70;;;1.50;99.90;;;;;;5053181;28;20238;-50
2023/04/27 02:16:43;;;;;;;14.10;13.00;;;1.50;99.90;;;;;;5070057;28;20189;-48
2023/04/27 02:19:08;;;;;;;13.60;12.50;;;1.50;99.90;;;;;;5071067;28;20640;-50
2023/04/27 02:21:35;;;;;;;13.33;12.33;;;1.50;99.90;;;;;;5071316;28;20184;-51
2023/04/27 02:24:00;;;;;;;13.25;12.15;;;1.50;99.90;;;;;;5072499;28;20323;-47
2023/04/27 02:26:28;;;;;;;13.60;12.70;;;1.50;99.90;;;;;;5070277;28;20256;-47
2023/04/27 02:28:55;;;;;;;12.70;11.65;;;1.50;99.90;;;;;;5069301;28;20181;-51
2023/04/27 02:31:21;;;;;;;13.05;11.95;;;1.50;99.90;;;;;;5070883;28;20242;-50
2023/04/27 02:33:47;;;;;;;11.57;10.77;;;1.40;99.90;;;;;;5069950;28;20205;-47
2023/04/27 02:36:12;;;;;;;12.47;11.47;;;1.40;99.90;;;;;;5070031;28;20185;-51
2023/04/27 02:38:38;;;;;;;13.33;12.23;;;1.40;99.90;;;;;;5070965;28;20232;-49
2023/04/27 02:41:03;;;;;;;13.07;12.10;;;1.40;99.90;;;;;;5070545;28;20192;-48
2023/04/27 02:43:29;;;;;;;13.20;12.37;;;1.40;99.90;;;;;;5065500;28;20719;-50
2023/04/27 02:45:55;;;;;;;12.70;11.70;;;1.30;99.90;;;;;;5063971;28;20193;-49
2023/04/27 02:48:20;;;;;;;13.10;12.20;;;1.30;99.90;;;;;;5070361;28;20188;-54
2023/04/27 02:50:46;;;;;;;12.13;11.17;;;1.20;99.90;;;;;;5069032;28;20185;-50
2023/04/27 02:53:11;;;;;;;12.30;11.30;;;1.20;99.90;;;;;;5063793;28;20206;-48
2023/04/27 02:55:38;;;;;;;13.10;11.87;;;1.20;99.90;;;;;;5063553;28;20231;-49
2023/04/27 02:58:03;;;;;;;13.30;12.20;;;1.20;99.90;;;;;;5069585;28;20196;-51
2023/04/27 03:00:29;;;;;;;12.23;11.33;;;1.20;99.90;;;;;;5063022;28;20178;-47
2023/04/27 03:02:55;;;;;;;12.40;11.50;;;1.20;99.90;;;;;;5070121;28;20180;-47
2023/04/27 03:05:21;;;;;;;13.23;11.90;;;1.20;99.90;;;;;;5062793;28;20209;-46
2023/04/27 03:07:47;;;;;;;12.88;11.98;;;1.10;99.90;;;;;;5075049;28;20206;-50
2023/04/27 03:10:12;;;;;;;11.90;11.00;;;1.10;99.90;;;;;;5069182;28;20975;-52
2023/04/27 03:12:38;;;;;;;13.73;12.63;;;1.10;99.90;;;;;;5069210;28;20201;-47
2023/04/27 03:15:04;;;;;;;12.20;11.40;;;1.10;99.90;;;;;;5068247;28;20250;-50
2023/04/27 03:17:29;;;;;;;13.73;12.57;;;1.10;99.90;;;;;;5069894;28;20177;-53
2023/04/27 03:19:55;;;;;;;11.97;11.17;;;1.00;99.90;;;;;;5064594;28;20407;-48
2023/04/27 03:22:21;;;;;;;12.63;11.80;;;1.10;99.90;;;;;;5069418;28;20435;-45
2023/04/27 03:24:47;;;;;;;13.23;12.33;;;1.10;99.90;;;;;;5069652;28;20181;-50
2023/04/27 03:27:12;;;;;;;12.80;11.90;;;1.10;99.90;;;;;;5069045;28;20192;-50
2023/04/27 03:29:38;;;;;;;15.10;12.63;;;1.10;99.90;;;;;;5069694;28;20647;-51
2023/04/27 03:32:04;;;;;;;13.50;12.30;;;1.10;99.90;;;;;;5067665;28;20185;-51
2023/04/27 03:34:30;;;;;;;12.50;11.50;;;1.10;99.90;;;;;;5070044;28;20291;-51
2023/04/27 03:36:56;;;;;;;13.60;12.50;;;1.00;99.90;;;;;;5069637;28;20414;-52
2023/04/27 03:39:22;;;;;;;13.00;11.40;;;1.10;99.90;;;;;;5068713;28;20260;-50
2023/04/27 03:41:47;;;;;;;12.30;11.40;;;1.10;99.90;;;;;;5068492;28;20268;-48
2023/04/27 03:44:13;;;;;;;12.53;11.73;;;1.10;99.90;;;;;;5068606;28;20183;-47
2023/04/27 03:46:38;;;;;;;11.80;10.90;;;1.10;99.90;;;;;;5067850;28;20675;-48
2023/04/27 03:49:04;;;;;;;12.27;11.40;;;1.10;99.90;;;;;;5068580;28;20181;-49
2023/04/27 03:51:33;;;;;;;13.63;12.47;;;1.00;99.90;;;;;;5064947;28;20212;-47
2023/04/27 03:53:59;;;;;;;12.73;11.60;;;1.00;99.90;;;;;;5062631;28;20209;-52
2023/04/27 03:56:25;;;;;;;12.57;11.60;;;1.00;99.90;;;;;;5044385;28;20540;-50
2023/04/27 03:58:51;;;;;;;11.63;10.52;;;1.00;99.90;;;;;;5060828;28;20454;-49
2023/04/27 04:01:17;;;;;;;12.37;11.37;;;1.00;99.90;;;;;;5067661;28;20630;-47
2023/04/27 04:03:43;;;;;;;12.75;11.80;;;1.00;99.90;;;;;;5067649;28;20435;-48
2023/04/27 04:06:09;;;;;;;12.70;11.48;;;1.00;99.90;;;;;;5069712;28;20177;-47
2023/04/27 04:08:35;;;;;;;12.95;11.88;;;1.00;99.90;;;;;;5072766;28;20572;-53
2023/04/27 04:11:01;;;;;;;13.83;11.13;;;1.00;99.90;;;;;;5066102;28;20181;-48
2023/04/27 04:13:26;;;;;;;11.60;10.43;;;1.00;99.90;;;;;;5065791;28;20212;-45
2023/04/27 04:16:05;;;;;;;14.50;11.83;;;1.00;99.90;;;;;;5063278;28;20169;-53
2023/04/27 04:18:31;;;;;;;11.18;10.35;;;1.00;99.90;;;;;;5068763;28;20691;-48
2023/04/27 04:20:57;;;;;;;11.25;10.27;;;1.00;99.90;;;;;;5048796;28;20178;-47
2023/04/27 04:23:23;;;;;;;11.77;10.77;;;1.00;99.90;;;;;;5018726;28;1117622;-48
2023/04/27 04:25:49;;;;;;;12.97;11.87;;;1.00;99.90;;;;;;5069706;28;20196;-48
2023/04/27 04:28:15;;;;;;;12.50;11.50;;;1.00;99.90;;;;;;5068296;28;20227;-48
2023/04/27 04:30:42;;;;;;;12.85;11.85;;;1.10;99.90;;;;;;5068309;28;20444;-50
2023/04/27 04:33:08;;;;;;;13.20;12.10;;;1.10;99.90;;;;;;5042303;28;20266;-48
2023/04/27 04:35:36;;;;;;;11.82;10.93;;;1.10;99.90;;;;;;5065180;28;20189;-50
2023/04/27 04:38:02;;;;;;;11.73;10.93;;;1.10;99.90;;;;;;5063822;28;20268;-48
2023/04/27 04:40:28;;;;;;;12.30;11.10;;;1.20;99.90;;;;;;5069154;28;21553;-49
2023/04/27 04:42:53;;;;;;;12.40;11.40;;;1.20;99.90;;;;;;5064190;28;20195;-48
2023/04/27 04:45:19;;;;;;;13.27;11.90;;;1.20;99.90;;;;;;5066515;28;20190;-50
2023/04/27 04:47:46;;;;;;;12.63;11.63;;;1.20;99.90;;;;;;5066232;28;20247;-47
2023/04/27 04:50:12;;;;;;;11.93;11.02;;;1.30;99.90;;;;;;5068528;28;20251;-52
2023/04/27 04:52:37;;;;;;;12.97;11.87;;;1.30;99.90;;;;;;5069176;28;20193;-47
2023/04/27 04:55:03;;;;;;;12.50;11.50;;;1.30;99.90;;;;;;5069037;28;20526;-47
2023/04/27 04:57:29;;;;;;;13.13;11.87;;;1.30;99.90;;;;;;5068334;28;20507;-45
2023/04/27 04:59:55;;;;;;;13.20;12.00;;;1.40;99.90;;;;;;5068422;28;20818;-48
2023/04/27 05:02:21;;;;;;;13.60;12.50;;;1.50;99.90;;;;;;5067851;28;20183;-48
2023/04/27 05:04:47;;;;;;;13.37;12.27;;;1.60;99.90;;;;;;5067906;28;20205;-49
2023/04/27 05:07:12;;;;;;;13.70;12.50;;;1.60;99.90;;;;;;5069669;28;20192;-51
2023/04/27 05:09:38;;;;;;;11.37;10.40;;;1.70;99.90;;;;;;5068494;28;20189;-50
2023/04/27 05:12:05;;;;;;;13.98;12.88;;;1.80;99.90;;;;;;5056736;28;20266;-49
2023/04/27 05:14:31;;;;;;;12.65;11.70;;;1.90;99.90;;;;;;5068339;28;20259;-49
2023/04/27 05:16:57;;;;;;;13.40;12.17;;;2.00;99.90;;;;;;5067681;28;20185;-49
2023/04/27 05:19:24;;;;;;;13.50;12.30;;;2.10;99.90;;;;;;5068335;28;20199;-46
2023/04/27 05:21:49;;;;;;;13.48;12.27;;;2.20;99.90;;;;;;5069000;28;20177;-48
2023/04/27 05:24:15;;;;;;;14.03;12.53;;;2.30;99.90;;;;;;5071774;28;20211;-47
2023/04/27 05:26:42;;;;;;;13.90;11.40;;;2.40;99.90;;;;;;5071506;28;20450;-49
2023/04/27 05:29:07;;;;;;;12.85;11.55;;;2.50;99.90;;;;;;5072844;28;20419;-50
2023/04/27 05:31:33;;;;;;;13.23;11.97;;;2.60;99.90;;;;;;5070899;28;20215;-51
2023/04/27 05:33:59;;;;;;;13.53;12.40;;;2.70;99.90;;;;;;5057900;28;20233;-47
2023/04/27 05:36:25;;;;;;;13.13;11.83;;;2.80;99.90;;;;;;5072182;28;20248;-50
2023/04/27 05:38:51;;;;;;;12.98;11.90;;;3.00;99.90;;;;;;5072233;28;20264;-44
2023/04/27 05:41:17;;;;;;;17.43;11.67;;;3.10;99.90;;;;;;5071638;28;20633;-48
2023/04/27 05:43:42;;;;;;;13.13;12.27;;;3.10;99.90;;;;;;5071479;28;20189;-46
2023/04/27 05:46:11;;;;;;;14.40;13.13;;;3.20;99.90;;;;;;5071444;28;20185;-46
2023/04/27 05:48:37;;;;;;;14.07;12.88;;;3.30;99.90;;;;;;5071438;28;20541;-48
2023/04/27 05:51:03;;;;;;;12.17;11.00;;;3.30;99.90;;;;;;5071432;28;20269;-49
2023/04/27 05:53:29;;;;;;;13.97;13.00;;;3.40;99.90;;;;;;5073092;28;20215;-51
2023/04/27 05:55:57;;;;;;;12.82;11.93;;;3.40;99.90;;;;;;5071175;28;20426;-50
2023/04/27 05:58:23;;;;;;;13.65;12.75;;;3.30;99.90;;;;;;5071348;28;20276;-50
2023/04/27 06:00:49;;;;;;;13.33;12.33;;;3.30;99.90;;;;;;5072090;28;20280;-46
2023/04/27 06:03:15;;;;;;;13.70;12.60;;;3.30;99.90;;;;;;5069983;28;20181;-53
2023/04/27 06:05:40;;;;;;;13.83;12.53;;;3.40;99.90;;;;;;5071397;28;20427;-47
2023/04/27 06:08:06;;;;;;;13.00;12.10;;;3.50;99.90;;;;;;5077806;28;20185;-50
2023/04/27 06:10:32;;;;;;;13.20;12.10;;;3.50;99.90;;;;;;5072028;28;20188;-48
2023/04/27 06:12:58;;;;;;;13.17;12.10;;;3.70;99.90;;;;;;5070910;28;20244;-49
2023/04/27 06:15:24;;;;;;;12.98;12.02;;;3.90;99.90;;;;;;5070934;28;20246;-47
2023/04/27 06:17:49;;;;;;;12.40;11.50;;;4.20;99.90;;;;;;5070775;28;20181;-53
2023/04/27 06:20:15;;;;;;;13.27;12.27;;;4.40;99.90;;;;;;5073339;28;20196;-51
2023/04/27 06:22:41;;;;;;;14.10;12.80;;;4.50;99.90;;;;;;5053782;28;20239;-47
2023/04/27 06:25:07;;;;;;;12.30;11.40;;;4.70;99.90;;;;;;5071778;28;20212;-48
2023/04/27 06:27:35;;;;;;;12.90;12.10;;;4.80;99.90;;;;;;5071689;28;20227;-52
2023/04/27 06:30:01;;;;;;;12.90;11.80;;;4.90;99.90;;;;;;5070667;28;20940;-46
2023/04/27 06:32:26;;;;;;;13.27;12.17;;;5.10;99.90;;;;;;5070353;28;20208;-51
2023/04/27 06:34:52;;;;;;;12.07;11.33;;;5.20;99.90;;;;;;5069794;28;20196;-50
2023/04/27 06:37:17;;;;;;;13.90;12.70;;;5.30;99.90;;;;;;5070588;28;20711;-49
2023/04/27 06:39:43;;;;;;;13.70;12.63;;;5.30;99.90;;;;;;5080083;28;20282;-50
2023/04/27 06:42:09;;;;;;;12.10;11.20;;;5.20;99.90;;;;;;5052622;28;20279;-50
2023/04/27 06:44:34;;;;;;;12.87;11.97;;;5.20;99.90;;;;;;5071235;28;20438;-50
2023/04/27 06:47:01;;;;;;;12.80;11.70;;;5.30;99.90;;;;;;5069912;28;20617;-53
2023/04/27 06:49:26;;;;;;;13.10;12.00;;;5.50;99.90;;;;;;5071147;28;20209;-48
2023/04/27 06:51:52;;;;;;;12.40;11.40;;;5.70;99.90;;;;;;5070196;28;21244;-49
2023/04/27 06:54:18;;;;;;;13.70;12.60;;;5.80;99.90;;;;;;5070694;28;20205;-51
2023/04/27 06:56:44;;;;;;;12.77;11.77;;;5.90;99.90;;;;;;5071114;28;20173;-49
2023/04/27 06:59:10;;;;;;;13.77;12.77;;;6.10;99.90;;;;;;5052170;28;20639;-49
2023/04/27 07:01:36;;;;;;;11.17;10.27;;;6.00;99.90;;;;;;5070113;28;20177;-52
2023/04/27 07:04:05;;;;;;;12.00;11.10;;;6.20;99.90;;;;;;5068921;28;20292;-48
2023/04/27 07:06:32;;;;;;;12.10;11.30;;;6.30;99.90;;;;;;5070609;28;20173;-50
2023/04/27 07:08:58;;;;;;;12.20;11.30;;;6.50;99.90;;;;;;5075949;28;20558;-52
2023/04/27 07:11:23;;;;;;;11.70;10.90;;;6.50;99.90;;;;;;5070218;28;20196;-49
2023/04/27 07:13:49;;;;;;;12.47;11.60;;;6.70;99.90;;;;;;5070399;28;20457;-45
2023/04/27 07:16:15;;;;;;;12.53;11.43;;;6.80;98.50;;;;;;5070168;28;20235;-46
2023/04/27 07:18:41;;;;;;;12.73;11.83;;;7.00;98.30;;;;;;5070190;28;20182;-49
2023/04/27 07:21:07;;;;;;;12.37;11.47;;;7.10;97.50;;;;;;5063926;28;21058;-50
2023/04/27 07:23:33;;;;;;;12.67;11.77;;;7.40;97.30;;;;;;5069698;28;20477;-49
2023/04/27 07:25:59;;;;;;;13.63;12.60;;;7.50;97.10;;;;;;5070265;28;20177;-47
2023/04/27 07:28:24;;;;;;;12.73;11.80;;;7.60;95.70;;;;;;5070403;28;20223;-51
2023/04/27 07:30:50;;;;;;;11.50;10.63;;;7.80;95.70;;;;;;5069354;28;20185;-47
2023/04/27 07:33:16;;;;;;;13.10;12.20;;;8.00;95.30;;;;;;5068882;28;20494;-48
2023/04/27 07:35:42;;;;;;;13.07;12.17;;;8.20;95.90;;;;;;5067256;28;20454;-51
2023/04/27 07:38:07;;;;;;;13.03;12.23;;;8.40;95.30;;;;;;5068378;28;20679;-47
2023/04/27 07:40:33;;;;;;;12.90;11.97;;;8.50;94.40;;;;;;5067666;28;20324;-47
2023/04/27 07:42:59;;;;;;;13.30;12.30;;;8.60;94.20;;;;;;5069451;28;20185;-52
2023/04/27 07:45:30;;;;;;;12.80;11.90;;;8.80;93.50;;;;;;5069787;28;20217;-49
2023/04/27 07:47:58;;;;;;;12.90;12.10;;;8.90;93.70;;;;;;5069308;28;20488;-45
2023/04/27 07:50:28;;;;;;;13.30;12.40;;;9.10;92.40;;;;;;5069838;28;20458;-51
2023/04/27 07:52:55;;;;;;;13.90;13.00;;;9.20;91.40;;;;;;5069345;28;20463;-47
2023/04/27 07:55:22;;;;;;;13.50;12.60;;;9.10;90.70;;;;;;5068923;28;20411;-50
2023/04/27 07:57:48;;;;;;;14.03;13.13;;;9.20;90.90;;;;;;5069454;28;20933;-53
2023/04/27 08:00:14;;;;;;;14.00;13.00;;;9.40;90.30;;;;;;5066327;28;20436;-46
2023/04/27 08:02:40;;;;;;;13.97;12.97;;;9.40;89.30;;;;;;5068603;28;20444;-49
2023/04/27 08:05:07;;;;;;;15.10;13.93;;;9.40;86.70;;;;;;5070757;28;20412;-46
2023/04/27 08:07:33;;;;;;;14.00;12.90;;;9.50;85.10;;;;;;5069418;28;20540;-46
2023/04/27 08:09:59;;;;;;;14.53;13.70;;;9.60;84.00;;;;;;5068811;28;20982;-48
2023/04/27 08:12:25;;;;;;;14.47;13.57;;;9.70;85.70;;;;;;5069039;28;20469;-51
2023/04/27 08:14:51;;;;;;;14.50;13.40;;;9.90;85.40;;;;;;5068945;28;20208;-47
2023/04/27 08:17:17;;;;;;;17.10;12.83;;;10.10;81.30;;;;;;5051595;28;20198;-49
2023/04/27 08:19:43;;;;;;;12.83;12.03;;;10.10;79.60;;;;;;5069353;28;20422;-48
2023/04/27 08:22:08;;;;;;;14.00;13.03;;;10.20;79.70;;;;;;5076561;28;20470;-46
2023/04/27 08:24:35;;;;;;;12.80;11.90;;;10.40;77.30;;;;;;5068461;28;20191;-49
2023/04/27 08:27:02;;;;;;;14.33;13.33;;;10.60;74.30;;;;;;5066962;28;20255;-50
2023/04/27 08:29:27;;;;;;;13.30;12.50;;;10.80;74.70;;;;;;5067769;28;20435;-48
2023/04/27 08:31:53;;;;;;;13.40;12.50;;;10.90;72.80;;;;;;5065686;28;20990;-48
2023/04/27 08:34:19;;;;;;;13.27;12.37;;;11.10;73.30;;;;;;5067501;28;20293;-50
2023/04/27 08:36:45;;;;;;;12.97;12.07;;;11.50;72.10;;;;;;5068026;28;20252;-52
2023/04/27 08:39:10;;;;;;;13.90;13.10;;;11.70;70.60;;;;;;5069262;28;20184;-47
2023/04/27 08:41:42;;;;;;;14.17;13.27;;;12.00;66.60;;;;;;5068401;28;20622;-49
2023/04/27 08:44:08;;;;;;;12.90;12.00;;;12.40;61.70;;;;;;5067513;28;20226;-49
2023/04/27 08:46:33;;;;;;;14.27;13.37;;;12.80;60.10;;;;;;5067942;28;20423;-53
2023/04/27 08:48:59;;;;;;;15.77;14.70;;;13.20;57.80;;;;;;5066976;28;20684;-47
2023/04/27 08:51:26;;;;;;;13.77;12.83;;;13.90;56.00;;;;;;5067641;28;20264;-50
2023/04/27 08:53:55;;;;;;;14.50;13.57;;;14.30;52.60;;;;;;5066804;28;20197;-51
2023/04/27 08:56:23;;;;;;;15.80;14.70;;;14.40;51.30;;;;;;5066894;28;20424;-50
2023/04/27 08:58:50;;;;;;;15.47;14.47;;;14.50;48.40;;;;;;5071901;28;21071;-51
2023/04/27 09:01:16;;;;;;;15.00;14.00;;;14.80;47.80;;;;;;5066107;28;20439;-52
2023/04/27 09:03:42;;;;;;;14.43;13.53;;;14.80;46.10;;;;;;5069835;28;20428;-47
2023/04/27 09:06:08;;;;;;;15.23;14.20;;;14.80;47.00;;;;;;5070731;28;20423;-47
2023/04/27 09:08:48;;;;;;;15.70;14.37;;;14.90;46.00;;;;;;5070071;28;20185;-51
2023/04/27 09:11:27;;;;;;;14.27;13.27;;;14.90;44.60;;;;;;5069811;28;20208;-45
2023/04/27 09:13:52;;;;;;;14.60;13.60;;;15.00;44.30;;;;;;5071258;28;20508;-51
2023/04/27 09:16:23;;;;;;;14.97;13.87;;;15.00;44.00;;;;;;5071533;28;20438;-51
2023/04/27 09:18:49;;;;;;;14.00;13.00;;;14.90;44.40;;;;;;5068984;28;20631;-51
2023/04/27 09:21:25;;;;;;;14.83;13.70;;;14.90;45.70;;;;;;5069834;28;20422;-49
2023/04/27 09:23:51;;;;;;;14.87;13.73;;;15.30;44.10;;;;;;5071282;28;20833;-47
2023/04/27 09:26:25;;;;;;;14.10;13.20;;;15.90;42.10;;;;;;5070904;28;20525;-49
2023/04/27 09:28:56;;;;;;;14.80;13.70;;;16.70;42.90;;;;;;5072328;28;20404;-52
2023/04/27 09:31:33;;;;;;;15.30;14.20;;;16.60;39.00;;;;;;5070580;28;20435;-48
2023/04/27 09:33:59;;;;;;;16.20;15.10;;;16.20;37.30;;;;;;5068176;28;20473;-53
2023/04/27 09:36:25;;;;;;;15.23;14.20;;;15.40;35.80;;;;;;5069870;28;20436;-44
2023/04/27 09:38:51;;;;;;;13.47;12.67;;;15.20;38.20;;;;;;5072597;28;20412;-48
2023/04/27 09:41:17;;;;;;;16.23;15.13;;;15.00;39.60;;;;;;5071008;28;20173;-49
2023/04/27 09:43:44;;;;;;;16.30;15.20;;;15.20;40.40;;;;;;5071107;28;20752;-46
2023/04/27 09:46:12;;;;;;;15.00;13.80;;;15.70;39.70;;;;;;5069295;28;20470;-45
2023/04/27 09:48:39;;;;;;;15.47;14.37;;;16.00;37.90;;;;;;5067335;28;20774;-45
2023/04/27 09:51:05;;;;;;;15.97;14.87;;;15.90;38.30;;;;;;5070235;28;20416;-48
2023/04/27 09:53:51;;;;;;;14.83;13.83;;;15.80;38.40;;;;;;5061036;28;21288;-45
2023/04/27 09:57:01;;;;;;;15.27;14.23;;;15.70;37.30;;;;;;5060024;28;20427;-50
2023/04/27 10:00:09;;;;;;;14.30;13.30;;;15.00;35.40;;;;;;5055018;28;20419;-46
2023/04/27 10:02:47;;;;;;;14.03;13.07;;;14.20;35.80;;;;;;5042858;28;20430;-49
2023/04/27 10:05:41;;;;;;;14.93;13.93;;;14.00;37.30;;;;;;5060463;28;20993;-50
2023/04/27 10:08:09;;;;;;;14.50;13.60;;;14.00;36.30;;;;;;5068437;28;20415;-49
2023/04/27 10:10:49;;;;;;;15.20;14.20;;;14.10;36.50;;;;;;5070125;28;20414;-49
2023/04/27 10:13:25;;;;;;;13.20;12.40;;;14.10;35.50;;;;;;5043714;28;20486;-51
2023/04/27 10:15:52;;;;;;;12.67;11.63;;;14.00;37.60;;;;;;5069249;28;20722;-46
2023/04/27 10:18:28;;;;;;;15.70;14.43;;;14.40;38.10;;;;;;5063915;28;20943;-49
2023/04/27 10:20:53;;;;;;;15.07;14.00;;;15.00;36.70;;;;;;5069860;28;20968;-49
2023/04/27 10:23:24;;;;;;;14.30;13.40;;;15.50;36.10;;;;;;5069092;28;20593;-52
2023/04/27 10:25:50;;;;;;;13.23;12.30;;;15.70;35.90;;;;;;5070087;28;20200;-51
2023/04/27 10:28:17;;;;;;;13.77;12.77;;;15.80;35.00;;;;;;5068873;28;20447;-44
2023/04/27 10:30:45;;;;;;;14.90;13.90;;;16.20;35.60;;;;;;5068697;28;20999;-49
2023/04/27 10:33:15;;;;;;;15.23;14.03;;;16.80;33.30;;;;;;5069040;28;20463;-47
2023/04/27 10:35:44;;;;;;;15.70;14.70;;;17.20;31.50;;;;;;5070486;28;20420;-48
2023/04/27 10:38:17;;;;;;;15.43;14.43;;;16.80;32.10;;;;;;5069465;28;21250;-48
2023/04/27 10:40:45;;;;;;;15.30;14.27;;;16.40;32.60;;;;;;5070099;28;20967;-51
2023/04/27 10:43:16;;;;;;;16.80;15.60;;;16.10;31.60;;;;;;5067687;28;20657;-46
2023/04/27 10:45:42;;;;;;;17.33;15.90;;;15.50;32.90;;;;;;5067825;28;20974;-51
2023/04/27 10:48:11;;;;;;;16.40;15.27;;;15.40;34.40;;;;;;5068577;28;20462;-48
2023/04/27 10:50:37;;;;;;;15.33;14.33;;;15.20;35.00;;;;;;5068998;28;20430;-44
2023/04/27 10:53:05;;;;;;;16.10;15.10;;;15.20;34.90;;;;;;5064668;28;20825;-47
2023/04/27 10:55:31;;;;;;;16.40;15.30;;;15.10;33.80;;;;;;5069567;28;20185;-51
2023/04/27 10:57:57;;;;;;;16.07;14.93;;;14.80;33.80;;;;;;5051410;28;20446;-48
2023/04/27 11:00:28;;;;;;;16.77;15.57;;;14.70;34.80;;;;;;5068431;28;20431;-53
2023/04/27 11:02:56;;;;;;;15.23;14.10;;;14.90;33.30;;;;;;5068436;28;20534;-47
2023/04/27 11:05:28;;;;;;;16.27;14.90;;;15.60;34.90;;;;;;5069115;28;20507;-49
2023/04/27 11:08:31;;;;;;;16.83;15.63;;;16.30;33.20;;;;;;5069068;28;20435;-49
2023/04/27 11:10:57;;;;;;;16.67;15.50;;;15.90;30.70;;;;;;5006664;28;20545;-45
2023/04/27 11:13:24;;;;;;;16.03;15.03;;;16.00;31.00;;;;;;5056500;28;20969;-49
2023/04/27 11:15:58;;;;;;;16.33;15.23;;;16.20;32.90;;;;;;5068705;28;20189;-50
2023/04/27 11:18:26;;;;;;;16.17;15.00;;;16.20;31.30;;;;;;5069154;28;20430;-48
2023/04/27 11:21:04;;;;;;;16.17;15.07;;;16.20;32.50;;;;;;5068998;28;20423;-46
2023/04/27 11:23:40;;;;;;;14.80;13.90;;;16.30;32.00;;;;;;5068122;28;20862;-51
2023/04/27 11:26:24;;;;;;;15.57;14.47;;;16.40;31.10;;;;;;5069224;28;20537;-49
2023/04/27 11:29:08;;;;;;;15.07;14.00;;;16.00;30.20;;;;;;5064219;28;20442;-47
2023/04/27 11:31:47;;;;;;;15.50;14.40;;;16.80;31.50;;;;;;5065723;28;20423;-46
2023/04/27 11:34:16;;;;;;;15.73;14.73;;;17.50;29.40;;;;;;5064031;28;20479;-48
2023/04/27 11:36:42;;;;;;;15.03;14.07;;;17.50;29.00;;;;;;5068050;28;20460;-49
2023/04/27 11:39:11;;;;;;;15.83;14.83;;;17.60;29.00;;;;;;5074543;28;20453;-50
2023/04/27 11:41:38;;;;;;;14.70;13.70;;;17.10;29.70;;;;;;5080066;28;20189;-49
2023/04/27 11:44:09;;;;;;;15.20;14.10;;;16.90;29.60;;;;;;5068724;28;20983;-48
2023/04/27 11:46:35;;;;;;;14.50;13.60;;;16.90;29.90;;;;;;5066771;28;20435;-50
2023/04/27 11:49:07;;;;;;;15.00;14.00;;;16.80;29.90;;;;;;5067778;28;20514;-50
2023/04/27 11:51:33;;;;;;;14.80;13.83;;;16.70;31.00;;;;;;5067803;28;20431;-49
2023/04/27 11:54:04;;;;;;;13.67;12.80;;;17.00;30.90;;;;;;5068489;28;20479;-48
2023/04/27 11:56:38;;;;;;;14.00;13.10;;;17.50;30.00;;;;;;5067930;28;20423;-51
2023/04/27 11:59:04;;;;;;;13.87;13.07;;;18.00;28.90;;;;;;5068582;28;20433;-47
2023/04/27 12:01:33;;;;;;;15.20;14.00;;;17.90;29.20;;;;;;5050153;28;20436;-50
2023/04/27 12:04:00;;;;;;;15.00;14.00;;;17.70;28.40;;;;;;5065412;28;22008;-48
2023/04/27 12:06:27;;;;;;;15.20;14.30;;;17.70;28.40;;;;;;5066414;28;20448;-47
2023/04/27 12:08:55;;;;;;;14.30;13.40;;;17.10;28.70;;;;;;5067174;28;20467;-50
2023/04/27 12:11:21;;;;;;;14.97;13.87;;;16.90;28.60;;;;;;5066668;28;20428;-52
2023/04/27 12:13:47;;;;;;;15.07;14.07;;;16.90;29.60;;;;;;5065758;28;20470;-50
2023/04/27 12:16:12;;;;;;;15.63;14.63;;;17.70;29.00;;;;;;5068212;28;20272;-51
2023/04/27 12:18:38;;;;;;;15.47;14.47;;;18.30;27.90;;;;;;5068199;28;20870;-52
2023/04/27 12:21:06;;;;;;;16.00;14.83;;;19.10;28.20;;;;;;5050666;28;20193;-51
2023/04/27 12:23:32;;;;;;;14.60;13.70;;;19.80;27.30;;;;;;5068124;28;20316;-46
2023/04/27 12:25:58;;;;;;;14.70;13.70;;;20.60;26.10;;;;;;5068459;28;20486;-51
2023/04/27 12:28:24;;;;;;;13.77;12.87;;;20.60;25.60;;;;;;5068302;28;20484;-52
2023/04/27 12:30:49;;;;;;;14.30;13.40;;;20.90;25.90;;;;;;5068535;28;20197;-52
2023/04/27 12:33:15;;;;;;;15.00;14.00;;;20.40;24.40;;;;;;5071045;28;20216;-47